createdAt,value
2023-02-02T00:04:31.702Z,79.77
2023-02-02T00:09:37.143Z,79.77
2023-02-02T00:14:42.797Z,80.89
2023-02-02T00:19:49.116Z,80.89
2023-02-02T00:24:54.559Z,81.79
2023-02-02T00:30:00.014Z,81.79
2023-02-02T00:35:05.537Z,82.45
2023-02-02T00:40:12.500Z,82.80
2023-02-02T00:45:18.578Z,83.16
2023-02-02T00:50:24.030Z,83.49
2023-02-02T00:55:29.853Z,83.97
2023-02-02T01:00:35.230Z,84.26
2023-02-02T01:05:41.051Z,84.55
2023-02-02T01:10:46.577Z,84.90
2023-02-02T01:15:57.655Z,85.25
2023-02-02T01:21:07.152Z,85.34
2023-02-02T01:26:14.424Z,85.78
2023-02-02T01:31:21.705Z,85.87
2023-02-02T01:36:27.227Z,86.45
2023-02-02T01:41:33.133Z,86.71
2023-02-02T01:46:39.333Z,87.55
2023-02-02T01:51:51.496Z,87.55
2023-02-02T01:56:59.926Z,88.29
2023-02-02T02:02:05.651Z,89.17
2023-02-02T02:07:12.904Z,89.58
2023-02-02T02:12:18.591Z,90.15
2023-02-02T02:17:27.354Z,90.67
2023-02-02T02:23:13.447Z,91.01
2023-02-02T02:28:42.950Z,91.32
2023-02-02T02:33:54.435Z,91.39
2023-02-02T02:39:31.993Z,91.43
2023-02-02T02:44:38.193Z,91.66
2023-02-02T02:49:45.987Z,92.12
2023-02-02T02:54:54.786Z,92.51
2023-02-02T03:00:18.433Z,92.95
2023-02-02T03:05:29.491Z,92.95
2023-02-02T03:10:36.770Z,93.14
2023-02-02T03:15:46.827Z,93.16
2023-02-02T03:20:52.217Z,93.29
2023-02-02T03:25:57.848Z,93.21
2023-02-02T03:31:04.001Z,93.24
2023-02-02T03:36:10.356Z,93.31
2023-02-02T03:41:15.751Z,93.31
2023-02-02T03:46:21.329Z,92.93
2023-02-02T03:51:26.826Z,92.81
2023-02-02T03:56:32.269Z,93.12
2023-02-02T04:01:37.754Z,92.74
2023-02-02T04:06:43.250Z,92.41
2023-02-02T04:11:48.799Z,91.86
2023-02-02T04:16:54.414Z,91.72
2023-02-02T04:21:59.808Z,91.72
2023-02-02T04:27:05.422Z,91.11
2023-02-02T04:32:10.975Z,90.58
2023-02-02T04:37:16.509Z,88.84
2023-02-02T04:42:22.133Z,88.88
2023-02-02T04:47:27.847Z,88.17
2023-02-02T04:52:33.697Z,87.16
2023-02-02T04:57:39.237Z,86.46
2023-02-02T05:02:45.203Z,84.57
2023-02-02T05:07:50.647Z,84.57
2023-02-02T05:12:56.940Z,84.62
2023-02-02T05:18:02.535Z,83.89
2023-02-02T05:23:08.044Z,84.06
2023-02-02T05:28:15.979Z,84.10
2023-02-02T05:33:21.465Z,83.69
2023-02-02T05:38:26.923Z,83.42
2023-02-02T05:43:34.456Z,83.36
2023-02-02T05:48:39.822Z,83.17
2023-02-02T05:53:45.986Z,82.87
2023-02-02T05:58:51.434Z,82.56
2023-02-02T06:03:56.968Z,82.22
2023-02-02T06:09:03.188Z,81.80
2023-02-02T06:14:08.889Z,82.01
2023-02-02T06:19:14.281Z,82.23
2023-02-02T06:24:19.917Z,81.84
2023-02-02T06:29:25.697Z,82.12
2023-02-02T06:34:31.161Z,82.11
2023-02-02T06:39:36.788Z,82.18
2023-02-02T06:44:42.170Z,82.36
2023-02-02T06:49:47.621Z,82.19
2023-02-02T06:54:53.143Z,82.51
2023-02-02T06:59:58.721Z,82.68
2023-02-02T07:05:04.237Z,82.76
2023-02-02T07:10:10.487Z,82.73
2023-02-02T07:15:18.138Z,83.29
2023-02-02T07:20:23.666Z,83.70
2023-02-02T07:25:29.131Z,83.76
2023-02-02T07:30:34.692Z,84.27
2023-02-02T07:35:40.299Z,84.35
2023-02-02T07:40:46.598Z,85.04
2023-02-02T07:45:51.962Z,85.35
2023-02-02T07:51:06.181Z,85.55
2023-02-02T07:56:17.320Z,85.97
2023-02-02T08:01:26.571Z,86.03
2023-02-02T08:06:35.412Z,85.63
2023-02-02T08:11:41.003Z,85.73
2023-02-02T08:16:46.378Z,85.58
2023-02-02T08:21:51.791Z,85.06
2023-02-02T08:26:57.304Z,84.69
2023-02-02T08:32:03.047Z,84.64
2023-02-02T08:37:08.557Z,83.48
2023-02-02T08:42:14.237Z,83.36
2023-02-02T08:47:19.680Z,82.53
2023-02-02T08:52:25.922Z,82.99
2023-02-02T08:57:32.875Z,82.73
2023-02-02T09:02:38.337Z,82.16
2023-02-02T09:07:44.134Z,82.21
2023-02-02T09:12:49.584Z,81.84
2023-02-02T09:17:55.036Z,82.41
2023-02-02T09:23:00.443Z,81.91
2023-02-02T09:28:06.854Z,81.91
2023-02-02T09:33:12.306Z,81.23
2023-02-02T09:38:17.701Z,79.99
2023-02-02T09:43:32.071Z,80.19
2023-02-02T09:48:48.988Z,79.23
2023-02-02T09:53:58.203Z,79.39
2023-02-02T09:59:19.233Z,78.31
2023-02-02T10:04:33.654Z,77.81
2023-02-02T10:09:46.852Z,76.02
2023-02-02T10:14:59.231Z,76.02
2023-02-02T10:20:24.625Z,75.54
2023-02-02T10:25:30.963Z,75.54
2023-02-02T10:30:39.539Z,75.19
2023-02-02T10:35:48.040Z,75.19
2023-02-02T10:41:02.282Z,74.71
2023-02-02T10:46:09.713Z,75.70
2023-02-02T10:51:24.400Z,77.09
2023-02-02T10:56:38.822Z,76.64
2023-02-02T11:01:44.387Z,77.01
2023-02-02T11:06:49.976Z,76.68
2023-02-02T11:12:07.508Z,76.68
2023-02-02T11:17:24.500Z,75.11
2023-02-02T11:22:37.048Z,75.81
2023-02-02T11:27:45.062Z,75.42
2023-02-02T11:32:51.010Z,75.13
2023-02-02T11:38:08.417Z,75.24
2023-02-02T11:43:25.548Z,74.64
2023-02-02T11:48:34.255Z,73.65
2023-02-02T11:53:42.676Z,73.88
2023-02-02T11:58:50.285Z,72.74
2023-02-02T12:03:58.977Z,72.74
2023-02-02T12:09:16.051Z,72.06
2023-02-02T12:14:45.427Z,72.18
2023-02-02T12:20:12.106Z,70.93
2023-02-02T12:25:20.636Z,70.60
2023-02-02T12:30:29.074Z,70.60
2023-02-02T12:35:57.179Z,69.00
2023-02-02T12:41:11.614Z,68.87
2023-02-02T12:46:32.127Z,68.87
2023-02-02T12:52:12.709Z,70.07
2023-02-02T12:57:27.059Z,68.51
2023-02-02T13:02:58.361Z,68.17
2023-02-02T13:08:06.813Z,67.37
2023-02-02T13:13:27.486Z,66.33
2023-02-02T13:18:39.799Z,66.29
2023-02-02T13:23:54.220Z,66.21
2023-02-02T13:29:17.752Z,64.19
2023-02-02T13:34:32.071Z,64.55
2023-02-02T13:39:52.444Z,64.53
2023-02-02T13:45:00.911Z,64.67
2023-02-02T13:50:11.358Z,64.32
2023-02-02T13:55:29.046Z,64.69
2023-02-02T14:00:44.863Z,64.48
2023-02-02T14:06:08.726Z,63.45
2023-02-02T14:11:23.290Z,63.96
2023-02-02T14:16:34.809Z,63.60
2023-02-02T14:21:43.270Z,63.53
2023-02-02T14:26:57.210Z,64.42
2023-02-02T14:32:21.911Z,64.53
2023-02-02T14:37:30.379Z,64.44
2023-02-02T14:43:13.056Z,64.63
2023-02-02T14:48:26.914Z,64.63
2023-02-02T14:53:38.607Z,64.69
2023-02-02T14:58:56.383Z,64.74
2023-02-02T15:04:23.482Z,65.24
2023-02-02T15:09:32.893Z,65.17
2023-02-02T15:14:41.420Z,65.41
2023-02-02T15:19:49.654Z,65.53
2023-02-02T15:24:57.759Z,65.87
2023-02-02T15:30:09.261Z,65.97
2023-02-02T15:35:20.622Z,66.05
2023-02-02T15:40:28.829Z,66.20
2023-02-02T15:45:38.917Z,66.46
2023-02-02T15:50:48.542Z,66.35
2023-02-02T15:55:55.877Z,66.69
2023-02-02T16:01:04.365Z,66.63
2023-02-02T16:06:10.657Z,66.74
2023-02-02T16:11:23.664Z,66.36
2023-02-02T16:16:38.171Z,66.66
2023-02-02T16:21:49.505Z,66.88
2023-02-02T16:26:57.681Z,67.27
2023-02-02T16:32:04.543Z,67.33
2023-02-02T16:37:32.493Z,67.58
2023-02-02T16:42:38.596Z,67.78
2023-02-02T16:47:44.154Z,67.82
2023-02-02T16:52:55.761Z,67.96
2023-02-02T16:58:02.406Z,68.04
2023-02-02T17:03:11.143Z,67.57
2023-02-02T17:08:18.229Z,67.78
2023-02-02T17:13:36.653Z,67.98
2023-02-02T17:18:42.306Z,68.14
2023-02-02T17:23:51.066Z,68.45
2023-02-02T17:28:57.683Z,68.35
2023-02-02T17:34:04.294Z,68.56
2023-02-02T17:39:11.674Z,69.06
2023-02-02T17:44:17.257Z,69.22
2023-02-02T17:49:22.659Z,69.42
2023-02-02T17:54:28.060Z,69.72
2023-02-02T17:59:33.553Z,70.06
2023-02-02T18:04:39.093Z,70.22
2023-02-02T18:09:44.569Z,70.64
2023-02-02T18:14:50.033Z,70.82
2023-02-02T18:19:56.176Z,70.90
2023-02-02T18:25:01.787Z,70.98
2023-02-02T18:30:08.112Z,71.14
2023-02-02T18:35:14.252Z,71.30
2023-02-02T18:40:20.185Z,71.70
2023-02-02T18:45:26.372Z,71.84
2023-02-02T18:50:32.041Z,72.29
2023-02-02T18:55:39.038Z,72.43
2023-02-02T19:00:46.811Z,72.59
2023-02-02T19:06:10.275Z,72.68
2023-02-02T19:11:24.362Z,72.94
2023-02-02T19:16:32.578Z,73.09
2023-02-02T19:21:38.124Z,73.45
2023-02-02T19:26:49.507Z,73.61
2023-02-02T19:32:00.773Z,73.85
2023-02-02T19:37:27.066Z,74.08
2023-02-02T19:42:32.591Z,74.34
2023-02-02T19:47:39.610Z,74.37
2023-02-02T19:52:46.421Z,74.54
2023-02-02T19:57:54.353Z,74.69
2023-02-02T20:03:07.999Z,74.82
2023-02-02T20:08:34.677Z,75.08
2023-02-02T20:13:48.725Z,75.26
2023-02-02T20:18:59.607Z,75.40
2023-02-02T20:24:07.211Z,75.57
2023-02-02T20:29:28.254Z,75.69
2023-02-02T20:34:36.549Z,75.65
2023-02-02T20:39:47.821Z,75.64
2023-02-02T20:44:54.221Z,75.64
2023-02-02T20:50:01.250Z,75.73
2023-02-02T20:55:07.771Z,75.89
2023-02-02T21:00:16.200Z,76.25
2023-02-02T21:05:22.499Z,76.38
2023-02-02T21:10:29.000Z,76.47
2023-02-02T21:15:34.767Z,76.62
2023-02-02T21:20:40.255Z,76.67
2023-02-02T21:25:45.738Z,76.90
2023-02-02T21:30:51.374Z,77.45
2023-02-02T21:35:59.282Z,77.80
2023-02-02T21:41:07.726Z,78.08
2023-02-02T21:46:21.257Z,78.03
2023-02-02T21:51:35.431Z,78.33
2023-02-02T21:56:41.057Z,78.36
2023-02-02T22:01:48.318Z,78.70
2023-02-02T22:06:59.388Z,78.72
2023-02-02T22:12:07.980Z,78.93
2023-02-02T22:17:25.364Z,79.00
2023-02-02T22:22:35.749Z,79.03
2023-02-02T22:27:52.587Z,78.88
2023-02-02T22:32:57.992Z,79.29
2023-02-02T22:38:04.512Z,79.49
2023-02-02T22:43:09.991Z,79.74
2023-02-02T22:48:17.123Z,79.77
2023-02-02T22:53:25.813Z,79.76
2023-02-02T22:58:31.359Z,79.81
2023-02-02T23:03:36.885Z,79.56
2023-02-02T23:08:42.661Z,79.82
2023-02-02T23:13:48.199Z,79.63
2023-02-02T23:18:53.657Z,79.93
2023-02-02T23:23:59.102Z,79.82
2023-02-02T23:29:04.626Z,79.78
2023-02-02T23:34:10.095Z,79.79
2023-02-02T23:39:15.572Z,79.75
2023-02-02T23:44:21.099Z,79.69
2023-02-02T23:49:26.709Z,79.84
2023-02-02T23:54:33.129Z,79.56
2023-02-02T23:59:38.695Z,79.71
